Time,TemperatureF,DewpointF,PressureIn,WindDirection,WindDirectionDegrees,WindSpeedMPH,WindSpeedGustMPH,Humidity,HourlyPrecipIn,Conditions,Clouds,dailyrainin,SoftwareType,DateUTC
2013-01-22 00:00:00,30.6,10.2,29.77,West,281,1.0,1.0,42,0.00,,,0.00,Wunderground v.1.15,2013-01-22 05:00:00,
2013-01-22 00:05:00,30.4,10.0,29.76,NNW,333,1.0,1.0,42,0.00,,,0.00,Wunderground v.1.15,2013-01-22 05:05:00,
2013-01-22 00:10:00,30.3,9.9,29.76,West,270,1.0,2.0,42,0.00,,,0.00,Wunderground v.1.15,2013-01-22 05:10:00,
2013-01-22 00:15:00,30.1,9.7,29.76,West,275,1.0,2.0,42,0.00,,,0.00,Wunderground v.1.15,2013-01-22 05:15:00,
2013-01-22 00:20:00,30.0,9.1,29.76,West,261,1.0,1.0,41,0.00,,,0.00,Wunderground v.1.15,2013-01-22 05:20:00,
2013-01-22 00:30:00,29.8,9.5,29.76,WNW,295,1.0,1.0,42,0.00,,,0.00,Wunderground v.1.15,2013-01-22 05:30:00,
2013-01-22 00:40:00,29.8,10.0,29.77,West,275,1.0,1.0,43,0.00,,,0.00,Wunderground v.1.15,2013-01-22 05:40:00,
2013-01-22 00:45:00,30.0,9.6,29.76,West,261,1.0,1.0,42,0.00,,,0.00,Wunderground v.1.15,2013-01-22 05:45:00,
2013-01-22 00:50:00,30.0,10.2,29.77,West,269,1.0,6.0,43,0.00,,,0.00,Wunderground v.1.15,2013-01-22 05:50:00,
2013-01-22 01:00:00,29.7,9.4,29.77,WNW,286,2.0,2.0,42,0.00,,,0.00,Wunderground v.1.15,2013-01-22 06:00:00,
2013-01-22 01:10:00,29.5,9.7,29.76,West,280,1.0,1.0,43,0.00,,,0.00,Wunderground v.1.15,2013-01-22 06:10:00,
2013-01-22 01:20:00,29.4,9.1,29.75,West,275,2.0,2.0,42,0.00,,,0.00,Wunderground v.1.15,2013-01-22 06:20:00,
2013-01-22 01:25:00,29.4,9.6,29.76,WNW,300,2.0,2.0,43,0.00,,,0.00,Wunderground v.1.15,2013-01-22 06:25:00,
2013-01-22 01:35:00,29.4,9.1,29.76,West,275,1.0,4.0,42,0.00,,,0.00,Wunderground v.1.15,2013-01-22 06:35:00,
2013-01-22 01:40:00,29.3,9.0,29.74,West,267,2.0,4.0,42,0.00,,,0.00,Wunderground v.1.15,2013-01-22 06:40:00,
2013-01-22 01:50:00,29.0,8.7,29.75,West,263,1.0,1.0,42,0.00,,,0.00,Wunderground v.1.15,2013-01-22 06:50:00,
2013-01-22 02:00:00,28.8,9.1,29.76,North,5,1.0,1.0,43,0.00,,,0.00,Wunderground v.1.15,2013-01-22 07:00:00,
2013-01-22 02:10:00,28.5,7.8,29.76,West,275,2.0,2.0,41,0.00,,,0.00,Wunderground v.1.15,2013-01-22 07:10:00,
2013-01-22 02:15:00,28.4,8.2,29.77,West,269,1.0,2.0,42,0.00,,,0.00,Wunderground v.1.15,2013-01-22 07:15:00,
2013-01-22 02:20:00,28.2,8.0,29.77,West,268,1.0,4.0,42,0.00,,,0.00,Wunderground v.1.15,2013-01-22 07:20:00,
2013-01-22 02:30:00,28.1,6.8,29.78,WNW,289,1.0,2.0,40,0.00,,,0.00,Wunderground v.1.15,2013-01-22 07:30:00,
2013-01-22 02:40:00,27.8,8.2,29.79,WNW,284,1.0,1.0,43,0.00,,,0.00,Wunderground v.1.15,2013-01-22 07:40:00,
2013-01-22 02:50:00,27.8,7.1,29.77,NNE,12,2.0,2.0,41,0.00,,,0.00,Wunderground v.1.15,2013-01-22 07:50:00,
2013-01-22 02:55:00,27.6,8.0,29.77,WSW,258,1.0,2.0,43,0.00,,,0.00,Wunderground v.1.15,2013-01-22 07:55:00,
2013-01-22 03:00:00,27.6,6.9,29.78,West,274,1.0,1.0,41,0.00,,,0.00,Wunderground v.1.15,2013-01-22 08:00:00,
2013-01-22 03:10:00,27.3,7.2,29.78,West,273,0.0,0.0,42,0.00,,,0.00,Wunderground v.1.15,2013-01-22 08:10:00,
2013-01-22 03:20:00,26.9,7.4,29.77,West,268,1.0,1.0,43,0.00,,,0.00,Wunderground v.1.15,2013-01-22 08:20:00,
2013-01-22 03:30:00,26.7,7.7,29.79,West,268,0.0,1.0,44,0.00,,,0.00,Wunderground v.1.15,2013-01-22 08:30:00,
2013-01-22 03:40:00,26.6,8.1,29.78,NE,40,0.0,0.0,45,0.00,,,0.00,Wunderground v.1.15,2013-01-22 08:40:00,
2013-01-22 03:50:00,26.3,8.3,29.79,NE,40,0.0,0.0,46,0.00,,,0.00,Wunderground v.1.15,2013-01-22 08:50:00,
2013-01-22 03:55:00,26.1,7.1,29.78,ENE,76,0.0,0.0,44,0.00,,,0.00,Wunderground v.1.15,2013-01-22 08:55:00,
2013-01-22 04:00:00,26.0,7.0,29.78,WNW,292,0.0,0.0,44,0.00,,,0.00,Wunderground v.1.15,2013-01-22 09:00:00,
2013-01-22 04:10:00,25.8,6.3,29.79,WNW,292,0.0,0.0,43,0.00,,,0.00,Wunderground v.1.15,2013-01-22 09:10:00,
2013-01-22 04:20:00,25.6,10.0,29.79,East,88,1.0,1.0,51,0.00,,,0.00,Wunderground v.1.15,2013-01-22 09:20:00,
2013-01-22 04:30:00,25.3,9.7,29.79,ENE,72,1.0,1.0,51,0.00,,,0.00,Wunderground v.1.15,2013-01-22 09:30:00,
2013-01-22 04:35:00,25.3,8.8,29.80,ENE,72,1.0,1.0,49,0.00,,,0.00,Wunderground v.1.15,2013-01-22 09:35:00,
2013-01-22 04:45:00,25.0,9.4,29.80,ENE,71,1.0,3.0,51,0.00,,,0.00,Wunderground v.1.15,2013-01-22 09:45:00,
2013-01-22 04:50:00,25.0,9.8,29.80,ENE,70,1.0,1.0,52,0.00,,,0.00,Wunderground v.1.15,2013-01-22 09:50:00,
2013-01-22 05:00:00,24.7,10.4,29.81,ENE,65,1.0,1.0,54,0.00,,,0.00,Wunderground v.1.15,2013-01-22 10:00:00,
2013-01-22 05:10:00,24.2,11.1,29.81,NNE,20,1.0,3.0,57,0.00,,,0.00,Wunderground v.1.15,2013-01-22 10:10:00,
2013-01-22 05:20:00,24.1,9.4,29.82,North,9,0.0,0.0,53,0.00,,,0.00,Wunderground v.1.15,2013-01-22 10:20:00,
2013-01-22 05:25:00,24.1,9.8,29.83,North,9,0.0,0.0,54,0.00,,,0.00,Wunderground v.1.15,2013-01-22 10:25:00,
2013-01-22 05:30:00,23.9,10.1,29.83,North,9,0.0,0.0,55,0.00,,,0.00,Wunderground v.1.15,2013-01-22 10:30:00,
2013-01-22 05:40:00,23.5,8.4,29.83,ESE,103,0.0,2.0,52,0.00,,,0.00,Wunderground v.1.15,2013-01-22 10:40:00,
2013-01-22 05:50:00,23.2,6.8,29.86,NNE,19,1.0,1.0,49,0.00,,,0.00,Wunderground v.1.15,2013-01-22 10:50:00,
2013-01-22 06:00:00,22.7,6.8,29.85,NE,52,1.0,1.0,50,0.00,,,0.00,Wunderground v.1.15,2013-01-22 11:00:00,
2013-01-22 06:05:00,22.4,6.1,29.86,NE,41,1.0,4.0,49,0.00,,,0.00,Wunderground v.1.15,2013-01-22 11:05:00,
2013-01-22 06:15:00,21.9,6.1,29.88,ENE,69,2.0,2.0,50,0.00,,,0.00,Wunderground v.1.15,2013-01-22 11:15:00,
2013-01-22 06:25:00,21.4,5.6,29.87,ENE,69,2.0,2.0,50,0.00,,,0.00,Wunderground v.1.15,2013-01-22 11:25:00,
2013-01-22 06:30:00,21.1,5.3,29.87,NE,49,2.0,3.0,50,0.00,,,0.00,Wunderground v.1.15,2013-01-22 11:30:00,
2013-01-22 06:40:00,21.0,5.7,29.88,East,80,2.0,3.0,51,0.00,,,0.00,Wunderground v.1.15,2013-01-22 11:40:00,
2013-01-22 06:45:00,20.8,5.5,29.88,East,85,1.0,3.0,51,0.00,,,0.00,Wunderground v.1.15,2013-01-22 11:45:00,
2013-01-22 06:50:00,20.6,5.3,29.89,NE,46,2.0,2.0,51,0.00,,,0.00,Wunderground v.1.15,2013-01-22 11:50:00,
2013-01-22 07:00:00,20.5,5.2,29.89,NNE,19,1.0,1.0,51,0.00,,,0.00,Wunderground v.1.15,2013-01-22 12:00:00,
2013-01-22 07:10:00,20.2,5.4,29.91,ENE,71,0.0,0.0,52,0.00,,,0.00,Wunderground v.1.15,2013-01-22 12:10:00,
2013-01-22 07:20:00,20.0,4.7,29.91,ENE,67,1.0,1.0,51,0.00,,,0.00,Wunderground v.1.15,2013-01-22 12:20:00,
2013-01-22 07:30:00,19.7,4.9,29.92,NE,43,1.0,1.0,52,0.00,,,0.00,Wunderground v.1.15,2013-01-22 12:30:00,
2013-01-22 07:35:00,19.7,4.9,29.92,ENE,71,1.0,1.0,52,0.00,,,0.00,Wunderground v.1.15,2013-01-22 12:35:00,
2013-01-22 07:45:00,19.4,4.6,29.92,ENE,57,1.0,2.0,52,0.00,,,0.00,Wunderground v.1.15,2013-01-22 12:45:00,
2013-01-22 07:50:00,19.4,4.6,29.92,East,98,2.0,2.0,52,0.00,,,0.00,Wunderground v.1.15,2013-01-22 12:50:00,
2013-01-22 08:00:00,19.2,4.4,29.92,ENE,71,1.0,1.0,52,0.00,,,0.00,Wunderground v.1.15,2013-01-22 13:00:00,
2013-01-22 08:10:00,19.2,3.6,29.93,NE,53,0.0,0.0,50,0.00,,,0.00,Wunderground v.1.15,2013-01-22 13:10:00,
2013-01-22 08:20:00,19.2,3.6,29.93,East,88,1.0,1.0,50,0.00,,,0.00,Wunderground v.1.15,2013-01-22 13:20:00,
2013-01-22 08:30:00,19.4,3.8,29.95,NE,38,1.0,1.0,50,0.00,,,0.00,Wunderground v.1.15,2013-01-22 13:30:00,
2013-01-22 08:40:00,19.5,3.4,29.94,NE,54,0.0,1.0,49,0.00,,,0.00,Wunderground v.1.15,2013-01-22 13:40:00,
2013-01-22 08:45:00,19.7,4.0,29.94,NE,54,0.0,1.0,50,0.00,,,0.00,Wunderground v.1.15,2013-01-22 13:45:00,
2013-01-22 08:50:00,19.9,3.8,29.95,NE,54,0.0,0.0,49,0.00,,,0.00,Wunderground v.1.15,2013-01-22 13:50:00,
2013-01-22 09:00:00,20.0,3.9,29.95,NE,54,0.0,1.0,49,0.00,,,0.00,Wunderground v.1.15,2013-01-22 14:00:00,
2013-01-22 09:10:00,20.5,3.4,29.96,East,85,1.0,3.0,47,0.00,,,0.00,Wunderground v.1.15,2013-01-22 14:10:00,
2013-01-22 09:20:00,20.8,2.8,29.96,ESE,108,1.0,1.0,45,0.00,,,0.00,Wunderground v.1.15,2013-01-22 14:20:00,
2013-01-22 09:30:00,21.0,3.4,29.97,ENE,70,0.0,0.0,46,0.00,,,0.00,Wunderground v.1.15,2013-01-22 14:30:00,
2013-01-22 09:35:00,21.1,3.0,29.97,East,90,0.0,0.0,45,0.00,,,0.00,Wunderground v.1.15,2013-01-22 14:35:00,
2013-01-22 09:45:00,21.4,3.8,29.98,East,90,0.0,0.0,46,0.00,,,0.00,Wunderground v.1.15,2013-01-22 14:45:00,
2013-01-22 09:50:00,21.6,3.5,29.98,East,90,0.0,1.0,45,0.00,,,0.00,Wunderground v.1.15,2013-01-22 14:50:00,
2013-01-22 10:00:00,22.1,4.0,29.99,ENE,61,0.0,0.0,45,0.00,,,0.00,Wunderground v.1.15,2013-01-22 15:00:00,
2013-01-22 10:10:00,22.4,2.7,29.99,ENE,61,0.0,0.0,42,0.00,,,0.00,Wunderground v.1.15,2013-01-22 15:10:00,
2013-01-22 10:20:00,22.9,3.2,30.00,ENE,61,0.0,0.0,42,0.00,,,0.00,Wunderground v.1.15,2013-01-22 15:20:00,
2013-01-22 10:25:00,23.2,4.0,30.00,ENE,61,0.0,0.0,43,0.00,,,0.00,Wunderground v.1.15,2013-01-22 15:25:00,
2013-01-22 10:30:00,23.6,3.3,29.99,ENE,61,0.0,0.0,41,0.00,,,0.00,Wunderground v.1.15,2013-01-22 15:30:00,
2013-01-22 10:40:00,24.1,4.3,29.99,SSW,212,0.0,0.0,42,0.00,,,0.00,Wunderground v.1.15,2013-01-22 15:40:00,
2013-01-22 10:50:00,25.3,3.8,29.99,NE,49,1.0,1.0,39,0.00,,,0.00,Wunderground v.1.15,2013-01-22 15:50:00,
2013-01-22 11:00:00,26.0,5.5,29.99,WNW,285,0.0,1.0,41,0.00,,,0.00,Wunderground v.1.15,2013-01-22 16:00:00,
2013-01-22 11:05:00,26.4,4.2,30.00,NE,40,0.0,1.0,38,0.00,,,0.00,Wunderground v.1.15,2013-01-22 16:05:00,
2013-01-22 11:10:00,26.7,5.0,30.00,NE,40,0.0,0.0,39,0.00,,,0.00,Wunderground v.1.15,2013-01-22 16:10:00,
2013-01-22 11:20:00,27.9,6.1,29.99,WNW,286,0.0,0.0,39,0.00,,,0.00,Wunderground v.1.15,2013-01-22 16:20:00,
2013-01-22 11:30:00,29.1,5.4,30.00,WNW,286,0.0,2.0,36,0.00,,,0.00,Wunderground v.1.15,2013-01-22 16:30:00,
2013-01-22 11:40:00,29.5,5.2,29.99,NNW,336,1.0,1.0,35,0.00,,,0.00,Wunderground v.1.15,2013-01-22 16:40:00,
2013-01-22 11:45:00,30.1,6.3,29.99,NNW,335,0.0,1.0,36,0.00,,,0.00,Wunderground v.1.15,2013-01-22 16:45:00,
2013-01-22 11:55:00,31.5,8.2,29.98,North,355,0.0,0.0,37,0.00,,,0.00,Wunderground v.1.15,2013-01-22 16:55:00,
2013-01-22 12:00:00,32.2,7.6,29.98,NE,43,0.0,1.0,35,0.00,,,0.00,Wunderground v.1.15,2013-01-22 17:00:00,
2013-01-22 12:10:00,32.5,5.2,29.97,West,273,1.0,1.0,31,0.00,,,0.00,Wunderground v.1.15,2013-01-22 17:10:00,
2013-01-22 12:20:00,32.8,4.7,29.96,East,96,1.0,1.0,30,0.00,,,0.00,Wunderground v.1.15,2013-01-22 17:20:00,
2013-01-22 12:30:00,33.7,5.5,29.95,West,276,1.0,1.0,30,0.00,,,0.00,Wunderground v.1.15,2013-01-22 17:30:00,
2013-01-22 12:40:00,33.7,4.0,29.95,WSW,254,1.0,1.0,28,0.00,,,0.00,Wunderground v.1.15,2013-01-22 17:40:00,
2013-01-22 12:45:00,33.5,3.8,29.95,West,268,1.0,1.0,28,0.00,,,0.00,Wunderground v.1.15,2013-01-22 17:45:00,
2013-01-22 12:55:00,34.3,4.5,29.95,NW,306,1.0,1.0,28,0.00,,,0.00,Wunderground v.1.15,2013-01-22 17:55:00,
2013-01-22 13:00:00,34.4,3.8,29.95,SSE,166,1.0,2.0,27,0.00,,,0.00,Wunderground v.1.15,2013-01-22 18:00:00,
2013-01-22 13:10:00,35.0,2.7,29.95,West,267,1.0,1.0,25,0.00,,,0.00,Wunderground v.1.15,2013-01-22 18:10:00,
2013-01-22 13:20:00,34.6,0.5,29.94,West,277,1.0,1.0,23,0.00,,,0.00,Wunderground v.1.15,2013-01-22 18:20:00,
2013-01-22 13:30:00,34.3,0.3,29.95,West,264,2.0,3.0,23,0.00,,,0.00,Wunderground v.1.15,2013-01-22 18:30:00,
2013-01-22 13:40:00,34.0,0.0,29.95,West,261,4.0,4.0,23,0.00,,,0.00,Wunderground v.1.15,2013-01-22 18:40:00,
2013-01-22 13:50:00,33.8,-1.1,29.93,West,272,4.0,4.0,22,0.00,,,0.00,Wunderground v.1.15,2013-01-22 18:50:00,
2013-01-22 13:55:00,33.8,-1.1,29.93,WSW,258,4.0,5.0,22,0.00,,,0.00,Wunderground v.1.15,2013-01-22 18:55:00,
2013-01-22 14:05:00,34.3,-1.7,29.93,North,5,3.0,4.0,21,0.00,,,0.00,Wunderground v.1.15,2013-01-22 19:05:00,
2013-01-22 14:10:00,34.3,-1.7,29.94,WSW,246,3.0,6.0,21,0.00,,,0.00,Wunderground v.1.15,2013-01-22 19:10:00,
2013-01-22 14:20:00,34.6,-2.4,29.94,WSW,239,3.0,9.0,20,0.00,,,0.00,Wunderground v.1.15,2013-01-22 19:20:00,
2013-01-22 14:30:00,34.6,-2.4,29.93,West,271,3.0,3.0,20,0.00,,,0.00,Wunderground v.1.15,2013-01-22 19:30:00,
2013-01-22 14:40:00,34.3,-1.7,29.94,West,270,5.0,7.0,21,0.00,,,0.00,Wunderground v.1.15,2013-01-22 19:40:00,
2013-01-22 14:45:00,34.4,-2.6,29.94,West,267,4.0,7.0,20,0.00,,,0.00,Wunderground v.1.15,2013-01-22 19:45:00,
2013-01-22 14:55:00,34.9,-1.2,29.93,West,259,3.0,3.0,21,0.00,,,0.00,Wunderground v.1.15,2013-01-22 19:55:00,
2013-01-22 15:00:00,35.5,0.3,29.93,West,261,2.0,4.0,22,0.00,,,0.00,Wunderground v.1.15,2013-01-22 20:00:00,
2013-01-22 15:10:00,35.6,0.4,29.93,ENE,60,3.0,3.0,22,0.00,,,0.00,Wunderground v.1.15,2013-01-22 20:10:00,
2013-01-22 15:20:00,36.0,1.7,29.93,West,271,2.0,4.0,23,0.00,,,0.00,Wunderground v.1.15,2013-01-22 20:20:00,
2013-01-22 15:30:00,35.5,1.3,29.93,West,273,3.0,4.0,23,0.00,,,0.00,Wunderground v.1.15,2013-01-22 20:30:00,
2013-01-22 15:40:00,35.5,1.3,29.93,West,262,3.0,4.0,23,0.00,,,0.00,Wunderground v.1.15,2013-01-22 20:40:00,
2013-01-22 15:45:00,35.5,1.3,29.94,North,5,2.0,4.0,23,0.00,,,0.00,Wunderground v.1.15,2013-01-22 20:45:00,
2013-01-22 15:55:00,35.9,2.5,29.94,WSW,253,1.0,3.0,24,0.00,,,0.00,Wunderground v.1.15,2013-01-22 20:55:00,
2013-01-22 16:00:00,36.0,1.7,29.94,WSW,257,2.0,3.0,23,0.00,,,0.00,Wunderground v.1.15,2013-01-22 21:00:00,
2013-01-22 16:10:00,35.6,2.3,29.95,East,100,3.0,3.0,24,0.00,,,0.00,Wunderground v.1.15,2013-01-22 21:10:00,
2013-01-22 16:20:00,35.5,2.2,29.95,West,275,2.0,2.0,24,0.00,,,0.00,Wunderground v.1.15,2013-01-22 21:20:00,
2013-01-22 16:30:00,35.6,3.2,29.96,West,270,2.0,4.0,25,0.00,,,0.00,Wunderground v.1.15,2013-01-22 21:30:00,
2013-01-22 16:35:00,35.3,2.9,29.96,West,265,2.0,4.0,25,0.00,,,0.00,Wunderground v.1.15,2013-01-22 21:35:00,
2013-01-22 16:40:00,35.2,2.8,29.96,North,360,3.0,3.0,25,0.00,,,0.00,Wunderground v.1.15,2013-01-22 21:40:00,
2013-01-22 16:45:00,35.2,1.9,29.96,West,281,2.0,6.0,24,0.00,,,0.00,Wunderground v.1.15,2013-01-22 21:45:00,
2013-01-22 16:50:00,34.9,3.4,29.96,West,269,2.0,3.0,26,0.00,,,0.00,Wunderground v.1.15,2013-01-22 21:50:00,
2013-01-22 17:00:00,34.4,2.1,29.97,West,273,3.0,9.0,25,0.00,,,0.00,Wunderground v.1.15,2013-01-22 22:00:00,
2013-01-22 17:10:00,34.4,10.2,29.98,West,277,3.0,3.0,36,0.00,,,0.00,Wunderground v.1.15,2013-01-22 22:10:00,
2013-01-22 17:20:00,34.0,7.2,29.99,West,270,4.0,6.0,32,0.00,,,0.00,Wunderground v.1.15,2013-01-22 22:20:00,
2013-01-22 17:25:00,34.0,8.5,29.99,West,269,4.0,6.0,34,0.00,,,0.00,Wunderground v.1.15,2013-01-22 22:25:00,
2013-01-22 17:30:00,34.0,5.8,29.99,WSW,246,4.0,6.0,30,0.00,,,0.00,Wunderground v.1.15,2013-01-22 22:30:00,
2013-01-22 17:40:00,33.7,8.3,29.99,West,271,3.0,7.0,34,0.00,,,0.00,Wunderground v.1.15,2013-01-22 22:40:00,
2013-01-22 17:50:00,33.5,6.0,29.99,ENE,61,3.0,3.0,31,0.00,,,0.00,Wunderground v.1.15,2013-01-22 22:50:00,
2013-01-22 18:00:00,32.5,3.7,29.99,WNW,302,3.0,3.0,29,0.00,,,0.00,Wunderground v.1.15,2013-01-22 23:00:00,
2013-01-22 18:10:00,31.9,3.2,30.00,West,265,2.0,2.0,29,0.00,,,0.00,Wunderground v.1.15,2013-01-22 23:10:00,
2013-01-22 18:15:00,31.8,2.3,30.00,West,271,2.0,3.0,28,0.00,,,0.00,Wunderground v.1.15,2013-01-22 23:15:00,
2013-01-22 18:20:00,31.5,2.8,30.00,West,265,2.0,2.0,29,0.00,,,0.00,Wunderground v.1.15,2013-01-22 23:20:00,
2013-01-22 18:30:00,31.2,1.8,30.01,West,259,1.0,3.0,28,0.00,,,0.00,Wunderground v.1.15,2013-01-22 23:30:00,
2013-01-22 18:40:00,30.9,2.3,30.00,West,279,1.0,1.0,29,0.00,,,0.00,Wunderground v.1.15,2013-01-22 23:40:00,
2013-01-22 18:50:00,30.4,4.7,30.01,West,266,0.0,0.0,33,0.00,,,0.00,Wunderground v.1.15,2013-01-22 23:50:00,
2013-01-22 18:55:00,30.0,5.0,30.01,West,266,0.0,0.0,34,0.00,,,0.00,Wunderground v.1.15,2013-01-22 23:55:00,
2013-01-22 19:05:00,29.0,1.4,30.02,WNW,290,0.0,0.0,30,0.00,,,0.00,Wunderground v.1.15,2013-01-23 00:05:00,
2013-01-22 19:10:00,28.4,-0.6,30.02,WNW,294,0.0,0.0,28,0.00,,,0.00,Wunderground v.1.15,2013-01-23 00:10:00,
2013-01-22 19:20:00,27.5,0.8,30.02,WNW,294,0.0,0.0,31,0.00,,,0.00,Wunderground v.1.15,2013-01-23 00:20:00,
2013-01-22 19:30:00,27.5,1.4,30.02,West,265,0.0,0.0,32,0.00,,,0.00,Wunderground v.1.15,2013-01-23 00:30:00,
2013-01-22 19:40:00,27.6,2.8,30.03,West,272,0.0,0.0,34,0.00,,,0.00,Wunderground v.1.15,2013-01-23 00:40:00,
2013-01-22 19:45:00,27.5,2.8,30.03,West,272,0.0,0.0,34,0.00,,,0.00,Wunderground v.1.15,2013-01-23 00:45:00,
2013-01-22 19:55:00,27.0,1.0,30.04,West,272,0.0,0.0,32,0.00,,,0.00,Wunderground v.1.15,2013-01-23 00:55:00,
2013-01-22 20:00:00,26.7,0.7,30.03,West,272,0.0,0.0,32,0.00,,,0.00,Wunderground v.1.15,2013-01-23 01:00:00,
2013-01-22 20:10:00,25.8,-0.7,30.04,West,272,0.0,0.0,31,0.00,,,0.00,Wunderground v.1.15,2013-01-23 01:10:00,
2013-01-22 20:20:00,25.3,0.8,30.05,West,272,0.0,0.0,34,0.00,,,0.00,Wunderground v.1.15,2013-01-23 01:20:00,
2013-01-22 20:30:00,25.0,-0.8,30.05,West,272,0.0,0.0,32,0.00,,,0.00,Wunderground v.1.15,2013-01-23 01:30:00,
2013-01-22 20:35:00,25.1,-2.0,30.06,WSW,258,0.0,0.0,30,0.00,,,0.00,Wunderground v.1.15,2013-01-23 01:35:00,
2013-01-22 20:40:00,25.1,0.6,30.06,WSW,258,0.0,0.0,34,0.00,,,0.00,Wunderground v.1.15,2013-01-23 01:40:00,
2013-01-22 20:50:00,24.7,-0.4,30.06,WSW,258,0.0,0.0,33,0.00,,,0.00,Wunderground v.1.15,2013-01-23 01:50:00,
2013-01-22 21:00:00,24.4,-0.6,30.06,WSW,258,0.0,0.0,33,0.00,,,0.00,Wunderground v.1.15,2013-01-23 02:00:00,
2013-01-22 21:05:00,24.1,-0.3,30.05,WSW,258,0.0,0.0,34,0.00,,,0.00,Wunderground v.1.15,2013-01-23 02:05:00,
2013-01-22 21:10:00,23.8,-1.2,30.05,WSW,258,0.0,0.0,33,0.00,,,0.00,Wunderground v.1.15,2013-01-23 02:10:00,
2013-01-22 21:20:00,23.8,0.7,30.04,WSW,258,0.0,0.0,36,0.00,,,0.00,Wunderground v.1.15,2013-01-23 02:20:00,
2013-01-22 21:30:00,23.8,0.7,30.04,WSW,258,0.0,0.0,36,0.00,,,0.00,Wunderground v.1.15,2013-01-23 02:30:00,
2013-01-22 21:40:00,23.8,0.1,30.04,WSW,258,0.0,0.0,35,0.00,,,0.00,Wunderground v.1.15,2013-01-23 02:40:00,
2013-01-22 21:50:00,23.8,0.1,30.04,WSW,258,0.0,0.0,35,0.00,,,0.00,Wunderground v.1.15,2013-01-23 02:50:00,
2013-01-22 22:00:00,23.6,-2.0,30.05,WSW,258,0.0,0.0,32,0.00,,,0.00,Wunderground v.1.15,2013-01-23 03:00:00,
2013-01-22 22:05:00,23.6,0.5,30.04,WSW,258,0.0,0.0,36,0.00,,,0.00,Wunderground v.1.15,2013-01-23 03:05:00,
2013-01-22 22:15:00,23.2,0.1,30.05,WSW,258,0.0,0.0,36,0.00,,,0.00,Wunderground v.1.15,2013-01-23 03:15:00,
2013-01-22 22:20:00,23.0,-0.6,30.04,WSW,258,0.0,0.0,35,0.00,,,0.00,Wunderground v.1.15,2013-01-23 03:20:00,
2013-01-22 22:30:00,22.9,-1.3,30.04,ENE,73,0.0,0.0,34,0.00,,,0.00,Wunderground v.1.15,2013-01-23 03:30:00,
2013-01-22 22:40:00,22.9,-1.3,30.05,ENE,73,0.0,0.0,34,0.00,,,0.00,Wunderground v.1.15,2013-01-23 03:40:00,
2013-01-22 22:45:00,22.7,2.0,30.04,ENE,73,0.0,0.0,40,0.00,,,0.00,Wunderground v.1.15,2013-01-23 03:45:00,
2013-01-22 22:55:00,22.4,1.7,30.05,ENE,73,0.0,0.0,40,0.00,,,0.00,Wunderground v.1.15,2013-01-23 03:55:00,
2013-01-22 23:00:00,22.4,-1.2,30.05,ENE,76,0.0,0.0,35,0.00,,,0.00,Wunderground v.1.15,2013-01-23 04:00:00,
2013-01-22 23:10:00,22.2,-1.3,30.03,ENE,76,0.0,0.0,35,0.00,,,0.00,Wunderground v.1.15,2013-01-23 04:10:00,
2013-01-22 23:20:00,22.4,0.0,30.02,ENE,76,0.0,0.0,37,0.00,,,0.00,Wunderground v.1.15,2013-01-23 04:20:00,
2013-01-22 23:30:00,22.2,0.4,30.02,ENE,76,0.0,0.0,38,0.00,,,0.00,Wunderground v.1.15,2013-01-23 04:30:00,
2013-01-22 23:35:00,22.1,-0.8,30.02,ENE,76,0.0,0.0,36,0.00,,,0.00,Wunderground v.1.15,2013-01-23 04:35:00,
2013-01-22 23:40:00,22.1,0.9,30.03,ENE,76,0.0,0.0,39,0.00,,,0.00,Wunderground v.1.15,2013-01-23 04:40:00,
2013-01-22 23:50:00,21.8,2.7,30.03,ENE,76,0.0,0.0,43,0.00,,,0.00,Wunderground v.1.15,2013-01-23 04:50:00,